Time;durP1;ratioP1;P1;durP2;ratioP2;P2;SDS_P1;SDS_P2;PMS_P1;PMS_P2;Temp;Humidity;BMP_temperature;BMP_pressure;BME280_temperature;BME280_humidity;BME280_pressure;Samples;Min_cycle;Max_cycle;Signal;HPM_P1;HPM_P2
2023/07/19 00:01:25;;;;;;;27.38;21.73;;;;;;;29.05;100.00;97442.09;4821438;29;20054;-62
2023/07/19 00:03:54;;;;;;;26.25;22.60;;;;;;;29.04;100.00;97454.13;4836750;29;20150;-62
2023/07/19 00:06:24;;;;;;;26.83;22.25;;;;;;;29.08;100.00;97452.31;4821956;29;20057;-62
2023/07/19 00:08:53;;;;;;;30.85;23.63;;;;;;;29.10;100.00;97444.59;4823866;29;20053;-62
2023/07/19 00:11:24;;;;;;;26.80;22.85;;;;;;;29.12;100.00;97445.03;4830765;29;20051;-62
2023/07/19 00:13:54;;;;;;;30.75;23.83;;;;;;;29.20;100.00;97444.13;4816103;29;20053;-62
2023/07/19 00:16:24;;;;;;;29.15;22.98;;;;;;;29.20;100.00;97448.78;4814715;29;20150;-62
2023/07/19 00:18:53;;;;;;;27.88;22.70;;;;;;;29.17;100.00;97452.97;4802709;29;21196;-63
2023/07/19 00:21:36;;;;;;;27.42;24.30;;;;;;;29.14;100.00;97453.69;4816705;29;20064;-62
2023/07/19 00:24:06;;;;;;;31.20;24.38;;;;;;;28.99;100.00;97454.38;4810677;29;20058;-62
2023/07/19 00:26:36;;;;;;;28.90;24.20;;;;;;;28.93;100.00;97453.03;4814104;29;20057;-62
2023/07/19 00:29:05;;;;;;;29.17;24.60;;;;;;;29.05;100.00;97444.03;4824502;29;20050;-62
2023/07/19 00:31:37;;;;;;;33.90;25.02;;;;;;;29.00;100.00;97440.41;4817529;29;20593;-62
2023/07/19 00:34:07;;;;;;;30.13;24.27;;;;;;;28.96;100.00;97449.59;4829414;29;20047;-62
2023/07/19 00:36:36;;;;;;;29.65;24.08;;;;;;;28.97;100.00;97451.22;4808399;29;20050;-62
2023/07/19 00:39:06;;;;;;;33.65;25.42;;;;;;;28.98;100.00;97442.69;4811496;29;20141;-62
2023/07/19 00:41:35;;;;;;;35.67;25.88;;;;;;;28.95;100.00;97445.28;4830137;29;20129;-62
2023/07/19 00:44:05;;;;;;;32.30;24.92;;;;;;;29.05;100.00;97452.22;4832823;29;20062;-63
2023/07/19 00:46:35;;;;;;;31.67;25.75;;;;;;;28.98;100.00;97450.88;4842402;29;20057;-63
2023/07/19 00:49:09;;;;;;;35.05;24.75;;;;;;;29.06;100.00;97448.34;4809811;29;20136;-61
2023/07/19 00:51:39;;;;;;;29.88;23.75;;;;;;;29.08;100.00;97463.22;4840074;29;20050;-61
2023/07/19 00:54:09;;;;;;;32.05;24.67;;;;;;;29.05;100.00;97466.63;4827734;29;20054;-61
2023/07/19 00:56:42;;;;;;;33.17;25.65;;;;;;;29.01;100.00;97471.19;4836863;29;20439;-60
2023/07/19 00:59:12;;;;;;;;;;;;;;;29.06;100.00;97481.88;4817151;29;20153;-61
2023/07/19 01:01:44;;;;;;;29.98;24.20;;;;;;;29.02;100.00;97470.84;4818500;29;19928;-60
2023/07/19 01:04:14;;;;;;;33.72;24.63;;;;;;;29.03;100.00;97482.56;4815928;29;20103;-61
2023/07/19 01:06:44;;;;;;;34.40;25.75;;;;;;;29.08;100.00;97485.03;4825702;29;20387;-64
2023/07/19 01:09:14;;;;;;;33.05;25.40;;;;;;;29.13;100.00;97481.28;4817451;29;20178;-63
2023/07/19 01:11:44;;;;;;;33.65;26.23;;;;;;;29.12;100.00;97496.06;4834029;29;20077;-61
2023/07/19 01:14:14;;;;;;;36.58;26.33;;;;;;;29.15;100.00;97500.84;4816228;29;20046;-62
2023/07/19 01:16:44;;;;;;;37.28;27.02;;;;;;;29.10;100.00;97504.59;4795226;29;20058;-61
2023/07/19 01:19:16;;;;;;;33.63;25.48;;;;;;;29.18;100.00;97509.13;4824586;29;20060;-62
2023/07/19 01:21:48;;;;;;;35.70;27.73;;;;;;;29.13;100.00;97517.53;4804275;29;20546;-62
2023/07/19 01:24:18;;;;;;;34.55;25.42;;;;;;;29.10;100.00;97515.50;4832263;29;20065;-62
2023/07/19 01:26:48;;;;;;;34.85;25.60;;;;;;;29.17;100.00;97523.88;4805979;29;20058;-63
2023/07/19 01:29:17;;;;;;;38.50;28.05;;;;;;;29.17;100.00;97521.16;4841547;29;20126;-62
2023/07/19 01:31:47;;;;;;;33.17;25.48;;;;;;;29.16;100.00;97530.50;4826878;29;20050;-62
2023/07/19 01:34:17;;;;;;;37.45;27.00;;;;;;;29.11;100.00;97528.00;4829783;29;20142;-62
2023/07/19 01:36:47;;;;;;;37.22;26.55;;;;;;;29.07;100.00;97529.81;4816842;29;20053;-61
2023/07/19 01:39:16;;;;;;;34.70;26.25;;;;;;;29.12;100.00;97534.25;4812349;29;20060;-63
2023/07/19 01:41:46;;;;;;;32.50;25.13;;;;;;;29.14;100.00;97523.78;4836235;29;20047;-61
2023/07/19 01:44:17;;;;;;;38.38;28.40;;;;;;;29.10;100.00;97534.59;4802982;29;20082;-62
2023/07/19 01:46:50;;;;;;;37.67;27.95;;;;;;;29.13;100.00;97544.00;4812636;29;20061;-62
2023/07/19 01:49:19;;;;;;;42.38;27.27;;;;;;;29.20;100.00;97545.03;4807444;29;20388;-62
2023/07/19 01:51:49;;;;;;;37.05;27.05;;;;;;;29.10;100.00;97539.25;4835061;29;20129;-62
2023/07/19 01:54:18;;;;;;;36.10;27.77;;;;;;;29.15;100.00;97550.72;4838232;29;20057;-62
2023/07/19 01:56:48;;;;;;;37.28;28.80;;;;;;;29.17;100.00;97540.25;4836071;29;20060;-63
2023/07/19 01:59:18;;;;;;;37.90;28.15;;;;;;;29.14;100.00;97548.31;4813103;29;20476;-62
2023/07/19 02:01:48;;;;;;;41.47;29.65;;;;;;;29.21;100.00;97554.78;4818589;29;20059;-62
2023/07/19 02:04:17;;;;;;;39.88;30.05;;;;;;;29.19;100.00;97559.00;4817178;29;20392;-62
2023/07/19 02:06:47;;;;;;;39.33;28.23;;;;;;;29.25;100.00;97566.63;4808847;29;20521;-62
2023/07/19 02:09:16;;;;;;;37.78;28.35;;;;;;;29.28;100.00;97563.22;4818140;29;20051;-63
2023/07/19 02:11:46;;;;;;;39.20;29.23;;;;;;;29.26;100.00;97561.94;4833466;29;20050;-62
2023/07/19 02:14:19;;;;;;;46.10;30.70;;;;;;;29.29;100.00;97556.66;4818290;29;20047;-62
2023/07/19 02:16:49;;;;;;;37.60;27.77;;;;;;;29.30;100.00;97560.97;4801473;29;20054;-63
2023/07/19 02:19:18;;;;;;;38.67;29.08;;;;;;;29.35;100.00;97563.47;4818821;29;20662;-63
2023/07/19 02:21:48;;;;;;;37.78;28.08;;;;;;;29.37;100.00;97555.75;4820249;29;20083;-63
2023/07/19 02:24:17;;;;;;;36.03;28.50;;;;;;;29.31;100.00;97559.81;4834439;29;20051;-63
2023/07/19 02:26:48;;;;;;;39.05;29.75;;;;;;;29.21;100.00;97565.69;4808064;29;20062;-63
2023/07/19 02:29:18;;;;;;;37.80;28.58;;;;;;;29.22;100.00;97561.03;4804700;29;20148;-63
2023/07/19 02:31:47;;;;;;;40.25;28.33;;;;;;;29.29;100.00;97556.66;4804947;29;20051;-63
2023/07/19 02:34:18;;;;;;;35.78;28.63;;;;;;;29.26;100.00;97560.03;4805672;29;20154;-63
2023/07/19 02:36:49;;;;;;;36.30;29.13;;;;;;;29.40;100.00;97570.63;4802971;29;20080;-63
2023/07/19 02:39:20;;;;;;;42.20;28.75;;;;;;;29.42;100.00;97573.81;4822893;29;20487;-62
2023/07/19 02:41:49;;;;;;;45.10;29.75;;;;;;;29.47;100.00;97579.03;4819976;29;20527;-63
2023/07/19 02:44:18;;;;;;;39.70;28.10;;;;;;;29.45;100.00;97578.56;4805570;29;20050;-63
2023/07/19 02:46:48;;;;;;;37.55;27.00;;;;;;;29.45;100.00;97590.28;4834429;29;20053;-63
2023/07/19 02:49:17;;;;;;;38.78;26.83;;;;;;;29.47;100.00;97589.16;4805551;29;20050;-63
2023/07/19 02:51:47;;;;;;;37.22;27.33;;;;;;;29.43;100.00;97592.53;4805284;29;20059;-63
2023/07/19 02:54:16;;;;;;;35.28;27.33;;;;;;;29.44;100.00;97594.16;4808531;29;20055;-63
2023/07/19 02:56:46;;;;;;;37.97;27.58;;;;;;;29.46;100.00;97599.28;4818242;29;20165;-63
2023/07/19 02:59:15;;;;;;;35.33;27.38;;;;;;;29.45;100.00;97593.00;4818494;29;20050;-63
2023/07/19 03:01:45;;;;;;;36.88;27.20;;;;;;;29.45;100.00;97593.00;4822103;29;20623;-63
2023/07/19 03:04:14;;;;;;;37.38;28.30;;;;;;;29.44;100.00;97594.16;4815678;29;20062;-63
2023/07/19 03:06:44;;;;;;;38.60;28.95;;;;;;;29.44;100.00;97593.34;4802052;29;20058;-63
2023/07/19 03:09:15;;;;;;;36.92;27.70;;;;;;;29.49;100.00;97595.06;4791056;29;20054;-63
2023/07/19 03:11:44;;;;;;;46.67;30.85;;;;;;;29.51;100.00;97598.25;4811399;29;20065;-63
2023/07/19 03:14:14;;;;;;;45.65;30.73;;;;;;;29.47;100.00;97594.59;4814770;29;20046;-61
2023/07/19 03:16:43;;;;;;;43.00;30.17;;;;;;;29.54;100.00;97597.56;4813076;29;20054;-61
2023/07/19 03:19:13;;;;;;;41.92;29.67;;;;;;;29.57;100.00;97594.13;4819982;29;20432;-62
2023/07/19 03:21:43;;;;;;;42.38;30.23;;;;;;;29.55;100.00;97590.97;4794827;29;20062;-62
2023/07/19 03:24:13;;;;;;;38.67;28.52;;;;;;;29.56;100.00;97595.28;4831263;29;20146;-62
2023/07/19 03:26:42;;;;;;;47.20;30.60;;;;;;;29.62;100.00;97607.53;4814793;29;20050;-63
2023/07/19 03:29:11;;;;;;;40.38;28.67;;;;;;;29.63;100.00;97614.59;4812467;29;20062;-63
2023/07/19 03:31:42;;;;;;;40.53;30.85;;;;;;;29.59;100.00;97609.03;4800800;29;20055;-63
2023/07/19 03:34:11;;;;;;;40.92;29.83;;;;;;;29.55;100.00;97605.41;4800502;29;20652;-63
2023/07/19 03:36:41;;;;;;;37.35;29.88;;;;;;;29.59;100.00;97602.78;4796720;29;20046;-64
2023/07/19 03:39:10;;;;;;;44.55;31.55;;;;;;;29.58;100.00;97612.09;4821999;29;20137;-63
2023/07/19 03:41:39;;;;;;;41.85;30.15;;;;;;;29.55;100.00;97608.13;4832609;29;20748;-63
2023/07/19 03:44:09;;;;;;;42.42;31.98;;;;;;;29.62;100.00;97608.34;4787411;29;20403;-62
2023/07/19 03:46:39;;;;;;;42.55;30.60;;;;;;;29.61;100.00;97609.47;4822300;29;20175;-62
2023/07/19 03:49:09;;;;;;;41.97;30.92;;;;;;;29.78;100.00;97613.91;4817977;29;20103;-62
2023/07/19 03:51:39;;;;;;;43.50;30.55;;;;;;;29.68;100.00;97609.72;4804920;29;20086;-63
2023/07/19 03:54:08;;;;;;;42.42;30.17;;;;;;;29.83;100.00;97613.66;4796106;29;20051;-64
2023/07/19 03:56:38;;;;;;;43.90;30.75;;;;;;;29.97;100.00;97624.22;4832506;29;20055;-63
2023/07/19 03:59:08;;;;;;;40.30;29.25;;;;;;;29.91;100.00;97623.69;4820527;29;20054;-64
2023/07/19 04:01:38;;;;;;;39.90;29.13;;;;;;;29.87;100.00;97633.69;4825813;29;20054;-62
2023/07/19 04:04:07;;;;;;;42.88;30.25;;;;;;;29.83;100.00;97649.13;4808215;29;20397;-61
2023/07/19 04:06:37;;;;;;;39.65;29.40;;;;;;;29.85;100.00;97657.78;4835266;29;20081;-62
2023/07/19 04:09:10;;;;;;;41.53;28.95;;;;;;;29.96;100.00;97655.44;4808669;29;20504;-63
2023/07/19 04:11:40;;;;;;;44.55;30.30;;;;;;;29.99;100.00;97652.81;4830535;29;20078;-63
2023/07/19 04:14:09;;;;;;;41.35;29.70;;;;;;;30.06;100.00;97654.94;4803811;29;20131;-63
2023/07/19 04:16:41;;;;;;;35.70;28.10;;;;;;;30.21;100.00;97660.47;4831121;29;20127;-63
2023/07/19 04:19:12;;;;;;;45.53;29.65;;;;;;;30.24;100.00;97654.31;4818138;29;20050;-63
2023/07/19 04:21:42;;;;;;;46.28;30.27;;;;;;;30.17;100.00;97654.13;4833619;29;20043;-63
2023/07/19 04:24:12;;;;;;;43.08;29.52;;;;;;;30.14;100.00;97657.53;4805280;29;20046;-63
2023/07/19 04:26:41;;;;;;;51.03;29.98;;;;;;;30.05;100.00;97658.81;4833779;29;20058;-62
2023/07/19 04:29:11;;;;;;;39.55;28.50;;;;;;;30.19;100.00;97665.47;4839750;29;20101;-62
2023/07/19 04:31:41;;;;;;;39.95;28.20;;;;;;;30.23;100.00;97662.84;4822161;29;20076;-62
2023/07/19 04:34:10;;;;;;;43.63;30.02;;;;;;;30.20;100.00;97658.88;4823289;29;20146;-62
2023/07/19 04:36:41;;;;;;;49.45;29.25;;;;;;;30.14;100.00;97654.78;4806606;29;20172;-62
2023/07/19 04:39:11;;;;;;;43.35;29.08;;;;;;;30.24;100.00;97659.78;4807416;29;20059;-63
2023/07/19 04:41:42;;;;;;;42.33;26.92;;;;;;;30.21;100.00;97657.75;4818249;29;20123;-63
2023/07/19 04:44:15;;;;;;;43.97;29.20;;;;;;;30.21;100.00;97648.75;4807597;29;20808;-62
2023/07/19 04:46:45;;;;;;;38.95;27.52;;;;;;;30.16;100.00;97657.19;4806246;29;20772;-63
2023/07/19 04:49:15;;;;;;;40.47;26.90;;;;;;;30.27;100.00;97661.03;4803872;29;20487;-63
2023/07/19 04:51:45;;;;;;;42.90;27.90;;;;;;;30.22;100.00;97664.00;4802407;29;20086;-62
2023/07/19 04:54:14;;;;;;;42.47;29.52;;;;;;;30.33;100.00;97654.97;4788610;29;21565;-62
2023/07/19 04:56:44;;;;;;;40.90;29.13;;;;;;;30.42;100.00;97654.03;4817483;29;20384;-63
2023/07/19 04:59:14;;;;;;;40.80;29.05;;;;;;;30.46;100.00;97654.94;4806158;29;20849;-63
2023/07/19 05:01:43;;;;;;;39.92;28.40;;;;;;;30.48;100.00;97652.69;4819791;29;20759;-63
2023/07/19 05:04:13;;;;;;;38.67;26.55;;;;;;;30.62;100.00;97661.28;4831635;29;20067;-63
2023/07/19 05:06:43;;;;;;;44.22;29.25;;;;;;;30.69;100.00;97667.72;4820526;29;20074;-62
2023/07/19 05:09:12;;;;;;;39.30;27.65;;;;;;;30.69;100.00;97666.94;4834832;29;20069;-63
2023/07/19 05:11:42;;;;;;;38.20;28.00;;;;;;;30.66;100.00;97668.44;4807243;29;20157;-64
2023/07/19 05:14:12;;;;;;;36.42;27.88;;;;;;;30.64;100.00;97672.66;4822250;29;20071;-64
2023/07/19 05:16:42;;;;;;;38.92;29.08;;;;;;;30.46;100.00;97668.63;4823701;29;20430;-65
2023/07/19 05:19:13;;;;;;;36.22;27.15;;;;;;;30.45;100.00;97662.34;4822831;29;20043;-64
2023/07/19 05:21:44;;;;;;;40.97;29.92;;;;;;;30.55;100.00;97666.53;4824113;29;20080;-65
2023/07/19 05:24:13;;;;;;;39.22;27.60;;;;;;;30.76;100.00;97658.91;4837166;29;20065;-67
2023/07/19 05:26:44;;;;;;;38.70;28.35;;;;;;;30.90;100.00;97659.28;4834670;29;20161;-67
2023/07/19 05:29:14;;;;;;;41.05;27.58;;;;;;;31.16;100.00;97656.09;4808947;29;20054;-68
2023/07/19 05:31:46;;;;;;;37.15;27.27;;;;;;;31.26;100.00;97652.84;4806407;29;20070;-68
2023/07/19 05:34:16;;;;;;;40.13;30.08;;;;;;;31.14;100.00;97651.00;4808045;29;20065;-66
2023/07/19 05:36:45;;;;;;;38.83;29.20;;;;;;;30.99;100.00;97657.19;4801513;29;20549;-66
2023/07/19 05:39:15;;;;;;;40.53;29.83;;;;;;;30.96;100.00;97655.19;4814018;29;20074;-66
2023/07/19 05:41:44;;;;;;;39.03;27.75;;;;;;;30.87;100.00;97649.06;4828362;29;20167;-66
2023/07/19 05:44:16;;;;;;;41.00;29.10;;;;;;;30.46;100.00;97652.22;4811778;29;20061;-66
2023/07/19 05:46:46;;;;;;;38.63;23.70;;;;;;;30.40;100.00;97653.59;4831314;29;20090;-66
2023/07/19 05:49:17;;;;;;;31.83;21.17;;;;;;;30.26;100.00;97660.25;4805395;29;20058;-65
2023/07/19 05:51:47;;;;;;;29.33;20.10;;;;;;;30.37;100.00;97649.59;4822315;29;20546;-67
2023/07/19 05:54:21;;;;;;;28.67;18.80;;;;;;;30.71;100.00;97654.50;4834845;29;20588;-66
2023/07/19 05:56:52;;;;;;;33.70;21.10;;;;;;;30.69;100.00;97650.53;4804691;29;20157;-66
2023/07/19 05:59:28;;;;;;;29.55;20.58;;;;;;;30.64;100.00;97648.84;4811862;29;20861;-66
2023/07/19 06:01:58;;;;;;;27.30;20.42;;;;;;;30.69;100.00;97642.31;4818928;29;20570;-66
2023/07/19 06:04:27;;;;;;;27.55;22.08;;;;;;;30.43;100.00;97650.16;4838749;29;20755;-66
2023/07/19 06:06:57;;;;;;;30.08;21.67;;;;;;;30.63;100.00;97647.25;4817250;29;20142;-65
2023/07/19 06:09:27;;;;;;;33.15;21.95;;;;;;;30.95;100.00;97636.38;4819894;29;20103;-66
2023/07/19 06:11:57;;;;;;;28.95;21.52;;;;;;;31.02;100.00;97636.59;4816649;29;20942;-67
2023/07/19 06:14:27;;;;;;;33.33;24.05;;;;;;;31.29;100.00;97634.94;4802732;29;20050;-67
2023/07/19 06:16:57;;;;;;;30.98;22.77;;;;;;;31.41;100.00;97618.41;4817848;29;20559;-66
2023/07/19 06:19:26;;;;;;;32.72;23.30;;;;;;;31.83;100.00;97624.09;4821749;29;20054;-65
2023/07/19 06:21:56;;;;;;;33.53;24.63;;;;;;;31.74;100.00;97629.75;4809025;29;20141;-66
2023/07/19 06:24:26;;;;;;;30.02;24.02;;;;;;;32.00;100.00;97631.88;4829756;29;20057;-66
2023/07/19 06:27:05;;;;;;;31.70;23.95;;;;;;;32.19;98.78;97626.47;4817013;29;20051;-65
2023/07/19 06:29:35;;;;;;;35.22;24.88;;;;;;;32.37;99.20;97633.13;4814501;29;20058;-65
2023/07/19 06:32:05;;;;;;;30.15;24.48;;;;;;;32.41;99.75;97631.22;4803845;29;20061;-64
2023/07/19 06:34:35;;;;;;;31.88;23.75;;;;;;;32.09;97.69;97635.25;4821280;29;20554;-65
2023/07/19 06:37:05;;;;;;;27.10;21.38;;;;;;;31.76;100.00;97632.94;4806008;29;20134;-67
2023/07/19 06:39:34;;;;;;;31.20;22.75;;;;;;;31.40;100.00;97622.28;4807059;29;20593;-68
2023/07/19 06:42:04;;;;;;;30.77;21.15;;;;;;;31.49;100.00;97631.09;4819358;29;20110;-66
2023/07/19 06:44:35;;;;;;;27.05;22.65;;;;;;;31.50;100.00;97611.59;4803384;29;20066;-66
2023/07/19 06:47:05;;;;;;;31.42;22.27;;;;;;;31.52;100.00;97613.97;4819272;29;20050;-68
2023/07/19 06:49:34;;;;;;;30.48;22.40;;;;;;;31.83;100.00;97611.19;4821882;29;20569;-66
2023/07/19 06:52:04;;;;;;;32.08;22.70;;;;;;;31.99;100.00;97608.41;4823324;29;20110;-64
2023/07/19 06:54:35;;;;;;;35.58;23.60;;;;;;;31.91;100.00;97620.38;4821501;29;20421;-64
2023/07/19 06:57:04;;;;;;;29.35;23.63;;;;;;;32.08;100.00;97612.53;4822012;29;20064;-65
2023/07/19 06:59:36;;;;;;;31.88;23.42;;;;;;;32.15;99.55;97608.38;4838896;29;20133;-65
2023/07/19 07:02:06;;;;;;;34.92;24.95;;;;;;;32.30;99.97;97607.50;4819641;29;20107;-65
2023/07/19 07:04:35;;;;;;;34.22;24.67;;;;;;;32.60;99.73;97613.19;4823146;29;20121;-65
2023/07/19 07:07:05;;;;;;;32.92;26.52;;;;;;;32.61;98.13;97612.81;4790388;29;20145;-64
2023/07/19 07:09:36;;;;;;;31.73;25.33;;;;;;;32.50;98.08;97612.63;4798376;29;20046;-66
2023/07/19 07:12:06;;;;;;;28.67;23.20;;;;;;;32.75;95.33;97609.59;4829793;29;20078;-65
2023/07/19 07:14:36;;;;;;;34.78;26.73;;;;;;;32.66;94.53;97609.03;4815208;29;20054;-64
2023/07/19 07:17:09;;;;;;;34.38;26.58;;;;;;;32.52;95.94;97612.25;4818533;29;20054;-64
2023/07/19 07:19:39;;;;;;;33.28;26.02;;;;;;;32.68;96.69;97602.00;4832905;29;20061;-64
2023/07/19 07:22:09;;;;;;;32.55;26.85;;;;;;;32.69;96.73;97603.59;4816133;29;20062;-63
2023/07/19 07:24:39;;;;;;;33.20;26.73;;;;;;;32.77;95.47;97599.84;4816445;29;20058;-63
2023/07/19 07:27:08;;;;;;;30.13;24.15;;;;;;;32.91;94.88;97600.09;4805427;29;20730;-63
2023/07/19 07:29:41;;;;;;;28.83;23.80;;;;;;;32.93;93.05;97592.28;4814635;29;20059;-64
2023/07/19 07:32:11;;;;;;;;;;;;;;;33.12;92.32;97598.84;4815703;29;20746;-64
2023/07/19 07:34:40;;;;;;;34.80;25.15;;;;;;;32.90;91.31;97593.00;4818866;29;20023;-64
2023/07/19 07:37:10;;;;;;;32.15;24.58;;;;;;;33.09;92.52;97597.66;4818366;29;20144;-66
2023/07/19 07:39:40;;;;;;;36.15;25.67;;;;;;;33.23;91.11;97595.16;4818084;29;20058;-65
2023/07/19 07:42:09;;;;;;;32.50;25.27;;;;;;;33.29;91.14;97590.94;4833454;29;20138;-66
2023/07/19 07:44:38;;;;;;;32.33;26.25;;;;;;;33.19;92.52;97582.56;4820105;29;20068;-66
2023/07/19 07:47:09;;;;;;;31.45;26.58;;;;;;;33.14;92.82;97591.88;4819108;29;20058;-64
2023/07/19 07:49:38;;;;;;;26.98;23.55;;;;;;;33.34;93.41;97587.09;4816796;29;20054;-65
2023/07/19 07:52:11;;;;;;;30.60;24.65;;;;;;;33.14;91.23;97591.06;4830524;29;20511;-66
2023/07/19 07:54:40;;;;;;;;;;;;;;;33.06;90.52;97583.88;4817183;29;20050;-66
2023/07/19 07:57:09;;;;;;;28.85;23.33;;;;;;;33.15;91.30;97576.22;4787292;29;19952;-66
2023/07/19 07:59:38;;;;;;;29.05;24.33;;;;;;;33.12;90.76;97576.91;4821647;29;20072;-67
2023/07/19 08:02:07;;;;;;;31.02;24.25;;;;;;;33.06;91.63;97570.91;4817471;29;20050;-66
2023/07/19 08:04:37;;;;;;;29.65;25.08;;;;;;;33.11;90.10;97565.13;4821198;29;20053;-67
2023/07/19 08:07:06;;;;;;;31.55;23.80;;;;;;;33.00;92.56;97550.47;4824589;29;20053;-66
2023/07/19 08:09:36;;;;;;;31.38;24.50;;;;;;;33.20;90.39;97556.66;4823649;29;20060;-66
2023/07/19 08:12:06;;;;;;;29.70;23.92;;;;;;;33.24;90.48;97552.03;4822294;29;20475;-66
2023/07/19 08:14:40;;;;;;;29.98;25.80;;;;;;;33.15;91.29;97562.50;4821110;29;20119;-66
2023/07/19 08:17:10;;;;;;;28.05;24.33;;;;;;;33.03;90.22;97552.47;4817526;29;20073;-66
2023/07/19 08:19:39;;;;;;;30.63;25.33;;;;;;;32.94;92.56;97552.72;4839227;29;20423;-66
2023/07/19 08:22:24;;;;;;;33.67;26.60;;;;;;;32.91;93.86;97549.91;4817466;29;20051;-66
2023/07/19 08:24:54;;;;;;;34.45;26.05;;;;;;;32.56;95.08;97543.78;4818811;29;20061;-66
2023/07/19 08:27:33;;;;;;;34.78;25.27;;;;;;;32.50;96.79;97535.06;4792776;29;20174;-65
2023/07/19 08:30:10;;;;;;;36.22;28.05;;;;;;;32.29;97.00;97529.19;4802830;29;20482;-66
2023/07/19 08:32:40;;;;;;;36.78;28.40;;;;;;;32.23;98.80;97527.88;4812920;29;20578;-68
2023/07/19 08:35:09;;;;;;;33.88;26.10;;;;;;;32.23;97.63;97527.88;4815755;29;20065;-69
2023/07/19 08:37:38;;;;;;;34.58;25.60;;;;;;;32.29;99.21;97513.53;4804738;29;20153;-64
2023/07/19 08:40:09;;;;;;;33.65;27.30;;;;;;;32.04;99.60;97509.50;4813726;29;20054;-66
2023/07/19 08:42:39;;;;;;;35.55;27.45;;;;;;;31.81;99.07;97501.22;4807759;29;20057;-65
2023/07/19 08:45:11;;;;;;;30.45;24.60;;;;;;;31.86;99.90;97495.47;4822120;29;20064;-66
2023/07/19 08:47:41;;;;;;;31.60;23.80;;;;;;;32.00;98.58;97494.91;4811520;29;20062;-65
2023/07/19 08:50:11;;;;;;;31.75;23.52;;;;;;;31.99;98.52;97494.16;4817152;29;20342;-67
2023/07/19 08:52:41;;;;;;;32.53;23.83;;;;;;;32.11;95.81;97479.53;4821596;29;20376;-69
2023/07/19 08:55:10;;;;;;;30.45;23.83;;;;;;;32.12;95.89;97485.81;4817664;29;20123;-70
2023/07/19 08:57:43;;;;;;;30.65;22.90;;;;;;;32.05;95.85;97491.91;4819965;29;20088;-67
2023/07/19 09:00:17;;;;;;;29.42;22.65;;;;;;;31.98;95.93;97481.59;4818118;29;20129;-67
2023/07/19 09:02:47;;;;;;;29.75;24.88;;;;;;;31.74;96.46;97472.88;4818099;29;20050;-68
2023/07/19 09:05:17;;;;;;;28.20;23.25;;;;;;;31.99;98.59;97468.69;4817755;29;20065;-67
2023/07/19 09:07:48;;;;;;;31.70;24.15;;;;;;;32.01;96.74;97467.19;4822813;29;20144;-66
2023/07/19 09:10:18;;;;;;;27.67;21.88;;;;;;;32.05;96.20;97462.56;4824323;29;20071;-67
2023/07/19 09:12:47;;;;;;;27.38;21.27;;;;;;;32.09;98.60;97463.44;4831854;29;20058;-66
2023/07/19 09:15:20;;;;;;;23.92;19.23;;;;;;;31.74;100.00;97470.13;4820497;29;20141;-65
2023/07/19 09:17:50;;;;;;;;;;;;;;;31.49;100.00;97469.59;4825417;29;20058;-66
2023/07/19 09:20:28;;;;;;;15.00;13.48;;;;;;;31.17;99.91;97466.16;4824232;29;19962;-66
2023/07/19 09:23:06;;;;;;;14.43;11.90;;;;;;;30.98;99.46;97455.94;4823433;29;20129;-65
2023/07/19 09:25:56;;;;;;;13.63;12.15;;;;;;;30.97;100.00;97451.63;4803366;29;20047;-64
2023/07/19 09:28:27;;;;;;;15.57;12.95;;;;;;;30.70;100.00;97453.34;4822984;29;20696;-64
2023/07/19 09:31:04;;;;;;;15.52;12.32;;;;;;;30.34;100.00;97443.44;4824479;29;20093;-65
2023/07/19 09:33:36;;;;;;;18.67;10.93;;;;;;;30.23;100.00;97463.44;4826461;29;20050;-66
2023/07/19 09:36:05;;;;;;;17.58;11.80;;;;;;;29.81;100.00;97471.25;4835015;29;20061;-65
2023/07/19 09:38:35;;;;;;;16.65;10.65;;;;;;;29.49;100.00;97485.91;4822932;29;20235;-67
2023/07/19 09:41:04;;;;;;;13.00;8.38;;;;;;;29.16;100.00;97480.63;4827859;29;20499;-67
2023/07/19 09:43:35;;;;;;;11.70;6.97;;;;;;;29.24;100.00;97475.03;4829005;29;20120;-66
2023/07/19 09:46:05;;;;;;;13.85;7.72;;;;;;;29.03;100.00;97485.28;4825161;29;20049;-65
2023/07/19 09:48:35;;;;;;;8.15;6.93;;;;;;;28.63;100.00;97484.34;4838321;29;20137;-65
2023/07/19 09:51:05;;;;;;;10.57;5.40;;;;;;;28.47;100.00;97482.28;4823973;29;20150;-65
2023/07/19 09:53:40;;;;;;;8.77;5.10;;;;;;;28.33;100.00;97475.53;4822503;29;20042;-65
2023/07/19 09:56:11;;;;;;;8.02;4.93;;;;;;;28.18;100.00;97485.19;4823233;29;20172;-66
2023/07/19 09:58:42;;;;;;;9.07;5.45;;;;;;;28.11;100.00;97499.31;4823749;29;20672;-66
2023/07/19 10:01:12;;;;;;;13.32;7.53;;;;;;;27.97;100.00;97496.06;4823804;29;20158;-65
2023/07/19 10:03:44;;;;;;;13.05;7.38;;;;;;;27.69;100.00;97505.94;4826475;29;20135;-65
2023/07/19 10:06:17;;;;;;;9.02;6.63;;;;;;;27.44;100.00;97518.56;4808682;29;20056;-65
2023/07/19 10:08:46;;;;;;;;;;;;;;;27.15;100.00;97537.63;4827582;29;20138;-65
2023/07/19 10:11:23;;;;;;;8.85;6.90;;;;;;;27.25;100.00;97537.25;4827939;29;19933;-64
2023/07/19 10:13:56;;;;;;;12.32;7.20;;;;;;;27.32;100.00;97521.22;4832250;29;20062;-65
2023/07/19 10:16:36;;;;;;;10.75;7.25;;;;;;;27.29;100.00;97502.84;4821933;29;20131;-65
2023/07/19 10:19:10;;;;;;;9.85;6.68;;;;;;;27.02;100.00;97504.13;4811663;29;20042;-66
2023/07/19 10:22:07;;;;;;;11.77;7.05;;;;;;;27.11;100.00;97514.94;4824483;29;20432;-65
2023/07/19 10:24:38;;;;;;;11.30;7.20;;;;;;;27.16;100.00;97509.31;4823416;29;20081;-69
2023/07/19 10:27:10;;;;;;;9.35;7.05;;;;;;;27.18;100.00;97493.47;4811543;29;20053;-65
2023/07/19 10:29:44;;;;;;;10.55;8.00;;;;;;;27.13;100.00;97496.41;4825063;29;20068;-65
2023/07/19 10:32:14;;;;;;;10.10;7.03;;;;;;;27.20;100.00;97496.66;4812649;29;20055;-65
2023/07/19 10:34:49;;;;;;;11.27;7.15;;;;;;;27.10;100.00;97491.59;4814248;29;20062;-66
2023/07/19 10:37:18;;;;;;;9.65;7.05;;;;;;;27.14;100.00;97481.66;4836384;29;20542;-65
2023/07/19 10:39:48;;;;;;;9.27;6.72;;;;;;;27.16;100.00;97488.38;4817884;29;20122;-67
2023/07/19 10:42:18;;;;;;;9.75;7.40;;;;;;;27.16;100.00;97493.81;4823936;29;20046;-65
2023/07/19 10:44:48;;;;;;;10.00;8.23;;;;;;;27.11;100.00;97498.63;4824695;29;20110;-64
2023/07/19 10:47:18;;;;;;;10.52;7.60;;;;;;;27.14;100.00;97496.03;4833224;29;20459;-66
2023/07/19 10:49:48;;;;;;;9.45;7.28;;;;;;;27.13;100.00;97512.72;4819087;29;20045;-66
2023/07/19 10:52:21;;;;;;;10.45;7.43;;;;;;;27.16;100.00;97512.03;4826422;29;20145;-67
2023/07/19 10:54:55;;;;;;;9.23;7.45;;;;;;;27.02;100.00;97506.84;4803136;29;20542;-66
2023/07/19 10:57:43;;;;;;;10.52;7.18;;;;;;;27.08;100.00;97496.59;4822491;29;20054;-66
2023/07/19 11:00:13;;;;;;;12.57;8.70;;;;;;;27.12;100.00;97483.91;4813248;29;20051;-66
2023/07/19 11:02:45;;;;;;;10.07;7.22;;;;;;;26.97;100.00;97482.56;4821969;29;20099;-66
2023/07/19 11:05:15;;;;;;;7.63;6.35;;;;;;;27.00;100.00;97470.22;4831651;29;20057;-67
2023/07/19 11:07:47;;;;;;;11.40;6.35;;;;;;;27.15;100.00;97458.78;4471705;29;10000026;-67
2023/07/19 11:10:18;;;;;;;12.48;6.35;;;;;;;27.22;100.00;97468.00;4788947;29;20058;-68
2023/07/19 11:12:48;;;;;;;11.45;5.93;;;;;;;27.30;100.00;97460.94;4499045;29;10001231;-66
2023/07/19 11:15:17;;;;;;;8.40;6.47;;;;;;;27.32;100.00;97471.47;4820095;29;20262;-66
2023/07/19 11:17:48;;;;;;;9.80;6.82;;;;;;;27.32;100.00;97464.09;4816820;29;20340;-68
2023/07/19 11:20:30;;;;;;;10.18;8.35;;;;;;;27.46;100.00;97445.59;4819952;29;20499;-68
2023/07/19 11:23:07;;;;;;;8.93;7.63;;;;;;;27.51;100.00;97434.56;4802727;29;20054;-68
2023/07/19 11:25:38;;;;;;;10.30;7.75;;;;;;;27.51;100.00;97434.56;4817221;29;20054;-67
2023/07/19 11:28:08;;;;;;;10.57;7.90;;;;;;;27.55;100.00;97424.59;4819802;29;20058;-68
2023/07/19 11:30:39;;;;;;;10.65;7.72;;;;;;;27.59;100.00;97408.41;4819469;29;20050;-67